createdAt,value
2023-04-17T00:00:19.090Z,46.69
2023-04-17T00:01:19.106Z,48.73
2023-04-17T00:02:19.176Z,49.34
2023-04-17T00:03:19.099Z,48.27
2023-04-17T00:04:19.128Z,50.83
2023-04-17T00:05:19.092Z,44.34
2023-04-17T00:06:19.047Z,49.51
2023-04-17T00:07:19.048Z,55.07
2023-04-17T00:08:19.028Z,50.11
2023-04-17T00:09:19.004Z,47.40
2023-04-17T00:10:19.009Z,43.38
2023-04-17T00:11:19.111Z,48.25
2023-04-17T00:12:18.995Z,46.20
2023-04-17T00:13:18.981Z,44.83
2023-04-17T00:14:18.965Z,57.74
2023-04-17T00:15:18.943Z,50.97
2023-04-17T00:16:18.976Z,45.05
2023-04-17T00:17:18.947Z,52.39
2023-04-17T00:18:18.949Z,54.76
2023-04-17T00:19:18.939Z,54.81
2023-04-17T00:20:18.884Z,52.07
2023-04-17T00:21:18.884Z,54.70
2023-04-17T00:22:19.931Z,54.36
2023-04-17T00:23:18.881Z,52.76
2023-04-17T00:24:18.846Z,50.65
2023-04-17T00:25:18.858Z,47.70
2023-04-17T00:26:18.864Z,47.33
2023-04-17T00:27:18.830Z,54.40
2023-04-17T00:28:18.820Z,53.43
2023-04-17T00:29:18.821Z,54.33
2023-04-17T00:30:18.788Z,51.86
2023-04-17T00:31:18.950Z,52.73
2023-04-17T00:32:18.801Z,47.54
2023-04-17T00:33:18.771Z,54.23
2023-04-17T00:34:18.739Z,48.98
2023-04-17T00:35:18.728Z,43.13
2023-04-17T00:36:18.746Z,48.80
2023-04-17T00:37:18.726Z,55.13
2023-04-17T00:38:18.741Z,56.19
2023-04-17T00:39:18.689Z,44.50
2023-04-17T00:40:18.677Z,45.33
2023-04-17T00:41:18.665Z,44.31
2023-04-17T00:42:18.684Z,53.65
2023-04-17T00:43:18.685Z,51.63
2023-04-17T00:44:18.643Z,43.89
2023-04-17T00:45:18.641Z,45.21
2023-04-17T00:46:18.796Z,55.22
2023-04-17T00:47:18.598Z,55.41
2023-04-17T00:48:18.640Z,53.85
2023-04-17T00:49:18.637Z,51.35
2023-04-17T00:50:18.554Z,58.34
2023-04-17T00:51:18.559Z,54.80
2023-04-17T00:52:18.602Z,44.27
2023-04-17T00:53:18.598Z,42.84
2023-04-17T00:54:18.564Z,44.02
2023-04-17T00:55:18.545Z,54.59
2023-04-17T00:56:18.488Z,52.31
2023-04-17T00:57:18.501Z,53.99
2023-04-17T00:58:18.520Z,58.67
2023-04-17T00:59:18.512Z,55.32
2023-04-17T01:00:18.551Z,47.96
2023-04-17T01:01:18.488Z,59.30
2023-04-17T01:02:18.534Z,52.69
2023-04-17T01:03:18.599Z,45.11
2023-04-17T01:04:18.580Z,42.91
2023-04-17T01:05:18.425Z,44.29
2023-04-17T01:06:18.387Z,47.98
2023-04-17T01:07:18.398Z,53.60
2023-04-17T01:08:18.404Z,44.92
2023-04-17T01:09:18.346Z,50.70
2023-04-17T01:10:18.371Z,43.70
2023-04-17T01:11:18.343Z,46.32
2023-04-17T01:12:18.327Z,51.01
2023-04-17T01:13:18.336Z,50.66
2023-04-17T01:14:18.330Z,51.43
2023-04-17T01:15:18.316Z,54.00
2023-04-17T01:16:18.335Z,51.44
2023-04-17T01:17:18.299Z,53.05
2023-04-17T01:18:18.262Z,48.98
2023-04-17T01:19:18.270Z,48.90
2023-04-17T01:20:18.262Z,54.55
2023-04-17T01:21:18.268Z,52.70
2023-04-17T01:22:18.220Z,57.53
2023-04-17T01:23:18.198Z,56.01
2023-04-17T01:24:18.224Z,57.18
2023-04-17T01:25:18.191Z,53.25
2023-04-17T01:26:18.183Z,51.72
2023-04-17T01:27:18.174Z,53.35
2023-04-17T01:28:18.178Z,49.09
2023-04-17T01:29:18.141Z,57.27
2023-04-17T01:30:18.146Z,52.59
2023-04-17T01:31:18.179Z,45.81
2023-04-17T01:32:18.111Z,51.36
2023-04-17T01:33:18.093Z,43.71
2023-04-17T01:34:18.083Z,51.64
2023-04-17T01:35:18.089Z,51.91
2023-04-17T01:36:18.083Z,52.25
2023-04-17T01:37:18.084Z,56.99
2023-04-17T01:38:18.030Z,54.56
2023-04-17T01:39:18.035Z,53.96
2023-04-17T01:40:18.061Z,55.80
2023-04-17T01:41:18.032Z,58.05
2023-04-17T01:42:18.010Z,57.50
2023-04-17T01:43:18.047Z,50.44
2023-04-17T01:44:17.985Z,50.61
2023-04-17T01:45:17.990Z,47.45
2023-04-17T01:46:17.961Z,49.46
2023-04-17T01:47:18.021Z,55.83
2023-04-17T01:48:17.944Z,46.03
2023-04-17T01:49:17.938Z,45.16
2023-04-17T01:50:17.937Z,46.97
2023-04-17T01:51:17.918Z,52.99
2023-04-17T01:52:17.904Z,49.50
2023-04-17T01:53:17.880Z,50.95
2023-04-17T01:54:17.883Z,53.89
2023-04-17T01:55:17.858Z,51.74
2023-04-17T01:56:17.843Z,52.44
2023-04-17T01:57:17.839Z,47.72
2023-04-17T01:58:17.845Z,57.65
2023-04-17T01:59:17.825Z,53.76
2023-04-17T02:00:17.812Z,52.64
2023-04-17T02:01:17.814Z,53.31
2023-04-17T02:02:17.876Z,53.76
2023-04-17T02:03:17.928Z,54.03
2023-04-17T02:04:17.865Z,55.57
2023-04-17T02:05:17.776Z,50.91
2023-04-17T02:06:17.746Z,53.97
2023-04-17T02:07:17.723Z,54.63
2023-04-17T02:08:17.726Z,46.12
2023-04-17T02:09:17.721Z,54.13
2023-04-17T02:10:17.702Z,53.25
2023-04-17T02:11:17.708Z,46.32
2023-04-17T02:12:17.684Z,56.07
2023-04-17T02:13:17.674Z,53.20
2023-04-17T02:14:17.687Z,56.16
2023-04-17T02:15:17.658Z,54.49
2023-04-17T02:16:17.722Z,55.64
2023-04-17T02:17:17.641Z,59.60
2023-04-17T02:18:17.628Z,52.77
2023-04-17T02:19:17.594Z,55.31
2023-04-17T02:20:17.615Z,49.92
2023-04-17T02:21:17.584Z,56.65
2023-04-17T02:22:17.566Z,47.36
2023-04-17T02:23:17.575Z,52.30
2023-04-17T02:24:17.564Z,53.99
2023-04-17T02:25:17.556Z,58.65
2023-04-17T02:26:17.533Z,57.02
2023-04-17T02:27:17.519Z,44.47
2023-04-17T02:28:17.505Z,50.66
2023-04-17T02:29:17.530Z,56.65
2023-04-17T02:30:17.485Z,56.24
2023-04-17T02:31:17.531Z,57.72
2023-04-17T02:32:17.492Z,55.51
2023-04-17T02:33:17.460Z,56.76
2023-04-17T02:34:17.471Z,48.64
2023-04-17T02:35:17.442Z,51.36
2023-04-17T02:36:17.417Z,56.74
2023-04-17T02:37:17.419Z,56.37
2023-04-17T02:38:17.428Z,55.24
2023-04-17T02:39:17.393Z,57.77
2023-04-17T02:40:17.411Z,56.10
2023-04-17T02:41:17.386Z,50.13
2023-04-17T02:42:17.356Z,53.20
2023-04-17T02:43:17.381Z,59.48
2023-04-17T02:44:17.349Z,53.09
2023-04-17T02:45:17.342Z,59.44
2023-04-17T02:46:17.376Z,60.46
2023-04-17T02:47:17.301Z,54.19
2023-04-17T02:48:17.301Z,60.35
2023-04-17T02:49:17.307Z,60.36
2023-04-17T02:50:17.266Z,54.67
2023-04-17T02:51:17.266Z,54.78
2023-04-17T02:52:17.254Z,54.42
2023-04-17T02:53:17.248Z,56.80
2023-04-17T02:54:17.240Z,48.34
2023-04-17T02:55:17.222Z,57.85
2023-04-17T02:56:17.227Z,55.96
2023-04-17T02:57:17.190Z,58.60
2023-04-17T02:58:17.207Z,58.47
2023-04-17T02:59:17.173Z,60.55
2023-04-17T03:00:17.162Z,59.82
2023-04-17T03:01:17.241Z,58.58
2023-04-17T03:02:17.211Z,59.38
2023-04-17T03:03:17.345Z,56.82
2023-04-17T03:04:17.181Z,60.05
2023-04-17T03:05:17.118Z,59.07
2023-04-17T03:06:17.111Z,58.18
2023-04-17T03:07:17.108Z,59.26
2023-04-17T03:08:17.073Z,58.82
2023-04-17T03:09:17.064Z,58.71
2023-04-17T03:10:17.075Z,59.14
2023-04-17T03:11:17.066Z,57.07
2023-04-17T03:12:17.058Z,57.20
2023-04-17T03:13:17.044Z,57.08
2023-04-17T03:14:17.029Z,60.37
2023-04-17T03:15:16.996Z,60.38
2023-04-17T03:16:17.073Z,58.17
2023-04-17T03:17:17.023Z,58.70
2023-04-17T03:18:16.969Z,55.68
2023-04-17T03:19:16.970Z,61.18
2023-04-17T03:20:16.961Z,61.70
2023-04-17T03:21:16.959Z,61.95
2023-04-17T03:22:16.947Z,61.52
2023-04-17T03:23:16.922Z,58.84
2023-04-17T03:24:16.902Z,59.88
2023-04-17T03:25:16.943Z,58.05
2023-04-17T03:26:16.898Z,61.42
2023-04-17T03:27:16.888Z,62.94
2023-04-17T03:28:16.888Z,65.25
2023-04-17T03:29:17.845Z,62.99
2023-04-17T03:30:16.845Z,60.29
2023-04-17T03:31:16.898Z,61.09
2023-04-17T03:32:16.896Z,63.83
2023-04-17T03:33:16.856Z,62.11
2023-04-17T03:34:16.818Z,59.91
2023-04-17T03:35:16.803Z,60.95
2023-04-17T03:36:16.782Z,63.59
2023-04-17T03:37:16.787Z,63.14
2023-04-17T03:38:16.798Z,63.82
2023-04-17T03:39:16.744Z,64.46
2023-04-17T03:40:16.740Z,63.17
2023-04-17T03:41:16.737Z,62.57
2023-04-17T03:42:16.719Z,63.71
2023-04-17T03:43:16.737Z,63.25
2023-04-17T03:44:16.700Z,61.03
2023-04-17T03:45:16.677Z,60.54
2023-04-17T03:46:16.706Z,62.75
2023-04-17T03:47:16.663Z,61.61
2023-04-17T03:48:16.664Z,62.78
2023-04-17T03:49:16.651Z,61.45
2023-04-17T03:50:16.644Z,59.88
2023-04-17T03:51:16.628Z,61.09
2023-04-17T03:52:17.622Z,62.36
2023-04-17T03:53:16.619Z,63.02
2023-04-17T03:54:49.276Z,65.40
2023-04-17T03:55:16.591Z,61.68
2023-04-17T03:56:16.590Z,63.14
2023-04-17T03:57:16.602Z,64.29
2023-04-17T03:58:16.560Z,60.35
2023-04-17T03:59:17.527Z,61.78
2023-04-17T04:00:16.541Z,61.91
2023-04-17T04:01:16.564Z,61.57
2023-04-17T04:02:16.650Z,64.11
2023-04-17T04:03:16.692Z,62.56
2023-04-17T04:04:16.585Z,62.16
2023-04-17T04:05:16.570Z,60.01
2023-04-17T04:06:16.517Z,61.75
2023-04-17T04:07:16.480Z,62.07
2023-04-17T04:08:16.488Z,61.23
2023-04-17T04:09:16.493Z,62.37
2023-04-17T04:10:16.448Z,62.96
2023-04-17T04:11:16.470Z,63.49
2023-04-17T04:12:16.420Z,61.27
2023-04-17T04:13:16.392Z,61.34
2023-04-17T04:14:16.381Z,59.05
2023-04-17T04:15:16.413Z,60.61
2023-04-17T04:16:16.373Z,64.42
2023-04-17T04:17:16.365Z,62.42
2023-04-17T04:18:16.366Z,61.55
2023-04-17T04:19:16.316Z,64.05
2023-04-17T04:20:17.312Z,61.58
2023-04-17T04:21:16.334Z,62.57
2023-04-17T04:22:16.370Z,62.07
2023-04-17T04:23:16.295Z,60.59
2023-04-17T04:24:16.259Z,62.63
2023-04-17T04:25:16.265Z,61.89
2023-04-17T04:26:16.287Z,61.83
2023-04-17T04:27:17.783Z,62.57
2023-04-17T04:28:17.257Z,65.35
2023-04-17T04:29:16.221Z,63.16
2023-04-17T04:30:16.211Z,62.53
2023-04-17T04:31:16.226Z,63.36
2023-04-17T04:32:16.280Z,64.43
2023-04-17T04:33:16.189Z,64.62
2023-04-17T04:34:16.160Z,62.61
2023-04-17T04:35:16.215Z,64.39
2023-04-17T04:36:16.171Z,63.52
2023-04-17T04:37:16.176Z,63.48
2023-04-17T04:38:16.149Z,62.79
2023-04-17T04:39:16.165Z,64.82
2023-04-17T04:40:16.112Z,66.25
2023-04-17T04:41:16.102Z,64.36
2023-04-17T04:42:16.103Z,63.15
2023-04-17T04:43:16.058Z,64.98
2023-04-17T04:44:16.049Z,63.79
2023-04-17T04:45:16.099Z,63.15
2023-04-17T04:46:17.121Z,61.74
2023-04-17T04:47:16.019Z,63.57
2023-04-17T04:48:16.027Z,64.23
2023-04-17T04:49:16.036Z,62.14
2023-04-17T04:50:16.018Z,62.93
2023-04-17T04:51:16.009Z,62.24
2023-04-17T04:52:16.010Z,62.65
2023-04-17T04:53:16.012Z,62.42
2023-04-17T04:54:15.991Z,62.98
2023-04-17T04:55:16.000Z,65.46
2023-04-17T04:56:15.942Z,65.53
2023-04-17T04:57:15.918Z,61.83
2023-04-17T04:58:15.932Z,63.42
2023-04-17T04:59:15.902Z,62.52
2023-04-17T05:00:15.916Z,63.06
2023-04-17T05:01:16.149Z,63.06
2023-04-17T05:02:15.949Z,65.68
2023-04-17T05:03:16.047Z,61.93
2023-04-17T05:04:15.949Z,62.11
2023-04-17T05:05:15.882Z,63.80
2023-04-17T05:06:15.865Z,62.27
2023-04-17T05:07:15.881Z,65.18
2023-04-17T05:08:15.843Z,65.27
2023-04-17T05:09:16.966Z,61.75
2023-04-17T05:10:15.787Z,61.53
2023-04-17T05:11:15.886Z,64.66
2023-04-17T05:12:15.823Z,62.78
2023-04-17T05:13:15.751Z,64.13
2023-04-17T05:14:15.847Z,65.28
2023-04-17T05:15:15.734Z,64.63
2023-04-17T05:16:15.842Z,63.17
2023-04-17T05:17:15.824Z,63.99
2023-04-17T05:18:15.789Z,65.61
2023-04-17T05:19:15.728Z,64.32
2023-04-17T05:20:15.713Z,65.00
2023-04-17T05:21:15.804Z,63.38
2023-04-17T05:22:15.698Z,64.34
2023-04-17T05:23:15.739Z,65.00
2023-04-17T05:24:15.707Z,65.27
2023-04-17T05:25:15.709Z,63.71
2023-04-17T05:26:15.647Z,65.17
2023-04-17T05:27:15.698Z,65.48
2023-04-17T05:28:17.007Z,63.74
2023-04-17T05:29:16.647Z,65.77
2023-04-17T05:30:15.632Z,65.45
2023-04-17T05:31:15.632Z,64.32
2023-04-17T05:32:15.598Z,66.37
2023-04-17T05:33:15.589Z,65.75
2023-04-17T05:34:15.602Z,65.85
2023-04-17T05:35:15.594Z,64.96
2023-04-17T05:36:15.723Z,63.88
2023-04-17T05:37:15.533Z,66.29
2023-04-17T05:38:15.550Z,65.82
2023-04-17T05:39:15.530Z,64.33
2023-04-17T05:40:15.495Z,64.71
2023-04-17T05:41:15.556Z,64.39
2023-04-17T05:42:15.493Z,64.54
2023-04-17T05:43:15.483Z,65.06
2023-04-17T05:44:15.447Z,63.75
2023-04-17T05:45:15.493Z,66.16
2023-04-17T05:46:15.504Z,65.46
2023-04-17T05:47:15.424Z,65.50
2023-04-17T05:48:15.429Z,65.19
2023-04-17T05:49:15.433Z,64.88
2023-04-17T05:50:15.421Z,66.96
2023-04-17T05:51:15.400Z,64.29
2023-04-17T05:52:15.378Z,63.03
2023-04-17T05:53:15.429Z,66.23
2023-04-17T05:54:15.397Z,64.36
2023-04-17T05:55:15.365Z,64.50
2023-04-17T05:56:15.318Z,63.67
2023-04-17T05:57:16.360Z,65.93
2023-04-17T05:59:16.303Z,64.69
2023-04-17T06:00:15.302Z,62.78
2023-04-17T06:01:15.353Z,63.89
2023-04-17T06:02:15.345Z,64.73
2023-04-17T06:03:18.061Z,66.58
2023-04-17T06:04:17.257Z,65.84
2023-04-17T06:05:15.435Z,64.81
2023-04-17T06:06:15.254Z,63.55
2023-04-17T06:07:15.250Z,65.56
2023-04-17T06:08:15.240Z,65.06
2023-04-17T06:09:15.359Z,65.81
2023-04-17T06:10:15.195Z,63.81
2023-04-17T06:11:15.391Z,64.13
2023-04-17T06:12:15.190Z,65.29
2023-04-17T06:13:15.154Z,63.73
2023-04-17T06:14:15.218Z,60.06
2023-04-17T06:15:15.154Z,64.00
2023-04-17T06:16:15.185Z,63.99
2023-04-17T06:17:15.132Z,62.58
2023-04-17T06:18:15.117Z,64.81
2023-04-17T06:19:15.101Z,65.80
2023-04-17T06:20:15.082Z,63.76
2023-04-17T06:21:15.095Z,61.40
2023-04-17T06:22:15.100Z,64.13
2023-04-17T06:23:15.122Z,62.32
2023-04-17T06:24:15.076Z,64.30
2023-04-17T06:25:15.041Z,64.74
2023-04-17T06:26:15.035Z,65.29
2023-04-17T06:27:15.035Z,64.71
2023-04-17T06:28:15.010Z,63.83
2023-04-17T06:29:15.020Z,63.93
2023-04-17T06:30:14.996Z,62.19
2023-04-17T06:31:15.018Z,62.88
2023-04-17T06:32:14.969Z,66.77
2023-04-17T06:33:14.943Z,62.01
2023-04-17T06:34:14.932Z,62.97
2023-04-17T06:35:14.929Z,62.70
2023-04-17T06:36:14.912Z,66.74
2023-04-17T06:37:14.908Z,65.79
2023-04-17T06:38:14.937Z,64.98
2023-04-17T06:39:14.860Z,65.92
2023-04-17T06:40:14.862Z,65.43
2023-04-17T06:41:14.904Z,64.57
2023-04-17T06:42:14.859Z,65.24
2023-04-17T06:43:14.866Z,64.39
2023-04-17T06:44:14.846Z,64.43
2023-04-17T06:45:15.856Z,64.06
2023-04-17T06:46:14.903Z,64.02
2023-04-17T06:47:14.800Z,64.02
2023-04-17T06:48:14.812Z,65.26
2023-04-17T06:49:15.090Z,66.33
2023-04-17T06:50:14.758Z,64.62
2023-04-17T06:51:14.829Z,62.30
2023-04-17T06:52:14.797Z,61.96
2023-04-17T06:53:14.770Z,63.02
2023-04-17T06:54:14.731Z,61.74
2023-04-17T06:55:14.757Z,62.67
2023-04-17T06:56:14.761Z,66.53
2023-04-17T06:57:14.670Z,64.31
2023-04-17T06:58:14.771Z,62.40
2023-04-17T06:59:14.652Z,63.42
2023-04-17T07:00:14.647Z,59.02
2023-04-17T07:01:14.748Z,60.18
2023-04-17T07:02:14.794Z,63.82
2023-04-17T07:03:14.884Z,64.52
2023-04-17T07:04:14.701Z,63.17
2023-04-17T07:05:14.651Z,62.41
2023-04-17T07:06:14.597Z,62.44
2023-04-17T07:07:14.659Z,62.39
2023-04-17T07:08:14.580Z,61.01
2023-04-17T07:09:14.788Z,60.64
2023-04-17T07:10:14.567Z,61.67
2023-04-17T07:11:14.630Z,63.21
2023-04-17T07:12:14.563Z,63.50
2023-04-17T07:13:14.555Z,63.00
2023-04-17T07:14:14.523Z,62.57
2023-04-17T07:15:14.575Z,64.48
2023-04-17T07:16:14.521Z,61.91
2023-04-17T07:17:14.481Z,61.36
2023-04-17T07:18:14.541Z,63.29
2023-04-17T07:19:14.621Z,64.23
2023-04-17T07:20:14.492Z,60.20
2023-04-17T07:21:14.403Z,62.70
2023-04-17T07:22:14.443Z,62.17
2023-04-17T07:23:14.451Z,65.76
2023-04-17T07:24:14.392Z,66.03
2023-04-17T07:25:14.386Z,64.54
2023-04-17T07:26:14.369Z,64.49
2023-04-17T07:27:14.348Z,65.61
2023-04-17T07:28:14.442Z,62.88
2023-04-17T07:29:14.611Z,63.82
2023-04-17T07:30:14.307Z,62.79
2023-04-17T07:31:14.445Z,64.00
2023-04-17T07:32:14.289Z,62.55
2023-04-17T07:33:14.289Z,63.29
2023-04-17T07:34:14.262Z,64.02
2023-04-17T07:35:14.277Z,70.35
2023-04-17T07:36:14.282Z,63.42
2023-04-17T07:37:14.261Z,61.22
2023-04-17T07:38:14.280Z,62.43
2023-04-17T07:39:14.391Z,64.38
2023-04-17T07:40:14.239Z,62.73
2023-04-17T07:41:14.224Z,64.09
2023-04-17T07:42:14.184Z,64.44
2023-04-17T07:43:14.204Z,63.98
2023-04-17T07:44:14.175Z,62.91
2023-04-17T07:45:14.198Z,64.34
2023-04-17T07:46:14.263Z,62.51
2023-04-17T07:47:14.217Z,63.67
2023-04-17T07:48:14.328Z,63.06
2023-04-17T07:49:15.418Z,61.52
2023-04-17T07:50:14.097Z,61.77
2023-04-17T07:51:14.138Z,62.74
2023-04-17T07:52:14.055Z,61.90
2023-04-17T07:53:14.110Z,62.29
2023-04-17T07:54:14.057Z,63.86
2023-04-17T07:55:14.133Z,61.18
2023-04-17T07:56:14.029Z,61.91
2023-04-17T07:57:14.000Z,62.47
2023-04-17T07:58:14.032Z,61.12
2023-04-17T07:59:14.205Z,61.31
2023-04-17T08:00:14.021Z,61.39
2023-04-17T08:01:13.983Z,63.02
2023-04-17T08:02:14.058Z,64.32
2023-04-17T08:03:14.022Z,61.60
2023-04-17T08:04:14.174Z,61.40
2023-04-17T08:05:14.018Z,62.63
2023-04-17T08:06:13.947Z,62.18
2023-04-17T08:07:13.903Z,61.91
2023-04-17T08:08:14.003Z,59.87
2023-04-17T08:09:14.329Z,63.95
2023-04-17T08:10:13.877Z,63.86
2023-04-17T08:11:13.872Z,63.54
2023-04-17T08:12:13.868Z,61.76
2023-04-17T08:13:13.912Z,61.53
2023-04-17T08:14:13.926Z,64.09
2023-04-17T08:15:13.829Z,62.85
2023-04-17T08:16:13.853Z,64.93
2023-04-17T08:17:13.786Z,63.02
2023-04-17T08:18:13.824Z,60.74
2023-04-17T08:19:13.981Z,62.57
2023-04-17T08:20:13.835Z,61.63
2023-04-17T08:21:13.762Z,63.64
2023-04-17T08:22:13.740Z,61.17
2023-04-17T08:23:13.758Z,65.19
2023-04-17T08:24:13.727Z,61.88
2023-04-17T08:25:13.700Z,62.58
2023-04-17T08:26:13.714Z,63.41
2023-04-17T08:27:13.667Z,62.59
2023-04-17T08:28:13.685Z,60.40
2023-04-17T08:29:13.991Z,59.92
2023-04-17T08:30:16.197Z,62.51
2023-04-17T08:31:13.712Z,62.09
2023-04-17T08:32:15.150Z,60.95
2023-04-17T08:33:14.674Z,61.06
2023-04-17T08:34:15.217Z,59.75
2023-04-17T08:35:14.624Z,60.38
2023-04-17T08:36:13.572Z,59.10
2023-04-17T08:37:13.847Z,60.70
2023-04-17T08:38:13.556Z,61.01
2023-04-17T08:39:13.828Z,60.76
2023-04-17T08:40:13.539Z,58.45
2023-04-17T08:41:13.517Z,58.42
2023-04-17T08:42:17.711Z,61.32
2023-04-17T08:43:15.550Z,65.55
2023-04-17T08:44:13.502Z,59.50
2023-04-17T08:45:13.502Z,62.15
2023-04-17T08:46:13.578Z,63.09
2023-04-17T08:47:13.464Z,60.57
2023-04-17T08:48:13.478Z,60.00
2023-04-17T08:49:13.652Z,58.80
2023-04-17T08:50:13.463Z,60.66
2023-04-17T08:51:13.432Z,58.98
2023-04-17T08:52:13.391Z,60.12
2023-04-17T08:53:13.385Z,63.36
2023-04-17T08:54:13.364Z,61.09
2023-04-17T08:55:13.379Z,61.25
2023-04-17T08:56:13.364Z,59.58
2023-04-17T08:57:13.344Z,60.21
2023-04-17T08:58:13.313Z,62.13
2023-04-17T08:59:13.456Z,61.53
2023-04-17T09:00:13.302Z,60.79
2023-04-17T09:01:13.260Z,62.56
2023-04-17T09:02:13.464Z,58.70
2023-04-17T09:03:13.571Z,62.37
2023-04-17T09:04:13.495Z,62.54
2023-04-17T09:05:13.245Z,59.61
2023-04-17T09:06:13.299Z,60.67
2023-04-17T09:07:13.234Z,63.11
2023-04-17T09:08:13.254Z,62.31
2023-04-17T09:09:13.429Z,61.12
2023-04-17T09:10:13.208Z,62.99
2023-04-17T09:11:13.144Z,61.79
2023-04-17T09:12:13.210Z,59.31
2023-04-17T09:13:13.164Z,63.58
2023-04-17T09:14:13.162Z,58.57
2023-04-17T09:15:13.164Z,59.37
2023-04-17T09:16:13.196Z,57.70
2023-04-17T09:17:13.105Z,60.72
2023-04-17T09:18:13.138Z,58.39
2023-04-17T09:19:13.210Z,58.24
2023-04-17T09:20:13.073Z,60.44
2023-04-17T09:21:13.058Z,61.67
2023-04-17T09:22:13.056Z,58.23
2023-04-17T09:23:13.017Z,58.00
2023-04-17T09:24:13.038Z,58.48
2023-04-17T09:25:13.055Z,59.93
2023-04-17T09:26:13.009Z,59.16
2023-04-17T09:27:14.051Z,61.93
2023-04-17T09:28:12.963Z,56.84
2023-04-17T09:29:13.371Z,60.34
2023-04-17T09:30:12.953Z,59.70
2023-04-17T09:31:13.001Z,63.61
2023-04-17T09:32:12.970Z,61.56
2023-04-17T09:33:13.019Z,58.73
2023-04-17T09:34:12.923Z,61.28
2023-04-17T09:35:12.921Z,60.61
2023-04-17T09:36:12.895Z,62.20
2023-04-17T09:37:12.844Z,60.90
2023-04-17T09:38:12.913Z,60.84
2023-04-17T09:39:13.131Z,61.51
2023-04-17T09:40:12.843Z,61.89
2023-04-17T09:41:12.870Z,58.98
2023-04-17T09:42:12.881Z,62.99
2023-04-17T09:43:12.837Z,60.16
2023-04-17T09:44:12.971Z,58.05
2023-04-17T09:45:12.841Z,57.42
2023-04-17T09:46:12.853Z,62.19
2023-04-17T09:47:12.863Z,60.26
2023-04-17T09:48:12.821Z,57.78
2023-04-17T09:49:12.740Z,60.45
2023-04-17T09:50:12.713Z,61.43
2023-04-17T09:51:12.800Z,61.47
2023-04-17T09:52:12.698Z,59.65
2023-04-17T09:53:12.660Z,57.09
2023-04-17T09:54:13.085Z,57.30
2023-04-17T09:55:12.669Z,58.26
2023-04-17T09:56:12.686Z,59.10
2023-04-17T09:57:12.648Z,58.65
2023-04-17T09:58:12.632Z,60.30
2023-04-17T09:59:12.629Z,60.41
2023-04-17T10:00:12.605Z,62.57
2023-04-17T10:01:12.608Z,57.84
2023-04-17T10:02:12.783Z,59.53
2023-04-17T10:03:12.656Z,58.52
2023-04-17T10:04:12.906Z,58.82
2023-04-17T10:05:12.558Z,59.57
2023-04-17T10:06:12.551Z,58.87
2023-04-17T10:07:12.544Z,56.13
2023-04-17T10:08:12.503Z,59.37
2023-04-17T10:09:12.595Z,57.38
2023-04-17T10:10:12.470Z,56.87
2023-04-17T10:11:12.510Z,57.19
2023-04-17T10:12:12.463Z,57.18
2023-04-17T10:13:12.468Z,58.10
2023-04-17T10:14:12.773Z,58.11
2023-04-17T10:15:12.448Z,56.37
2023-04-17T10:16:12.480Z,57.94
2023-04-17T10:17:12.414Z,58.83
2023-04-17T10:18:12.504Z,56.56
2023-04-17T10:19:12.402Z,56.81
2023-04-17T10:20:12.407Z,57.84
2023-04-17T10:21:12.407Z,61.35
2023-04-17T10:22:12.388Z,63.73
2023-04-17T10:23:12.357Z,59.80
2023-04-17T10:24:12.621Z,61.48
2023-04-17T10:25:12.363Z,59.74
2023-04-17T10:26:12.340Z,57.77
2023-04-17T10:27:12.325Z,60.07
2023-04-17T10:28:12.393Z,59.20
2023-04-17T10:29:12.298Z,59.78
2023-04-17T10:30:12.316Z,56.03
2023-04-17T10:31:12.285Z,57.82
2023-04-17T10:32:12.369Z,58.44
2023-04-17T10:33:12.317Z,57.17
2023-04-17T10:34:12.452Z,56.30
2023-04-17T10:35:12.279Z,58.65
2023-04-17T10:36:12.211Z,54.39
2023-04-17T10:37:12.210Z,56.86
2023-04-17T10:38:12.266Z,55.82
2023-04-17T10:39:12.569Z,58.94
2023-04-17T10:40:13.978Z,58.81
2023-04-17T10:41:12.146Z,60.71
2023-04-17T10:42:12.199Z,60.62
2023-04-17T10:43:13.123Z,61.79
2023-04-17T10:44:12.126Z,60.70
2023-04-17T10:45:12.148Z,61.71
2023-04-17T10:46:12.201Z,59.82
2023-04-17T10:48:12.200Z,58.87
2023-04-17T10:49:12.289Z,59.84
2023-04-17T10:50:12.082Z,56.71
2023-04-17T10:51:12.088Z,59.65
2023-04-17T10:52:12.253Z,59.28
2023-04-17T10:53:13.022Z,58.56
2023-04-17T10:54:12.021Z,58.07
2023-04-17T10:55:12.018Z,59.87
2023-04-17T10:56:12.082Z,62.29
2023-04-17T10:57:11.967Z,62.68
2023-04-17T10:58:11.951Z,63.37
2023-04-17T10:59:12.322Z,60.95
2023-04-17T11:00:11.972Z,56.76
2023-04-17T11:01:11.962Z,57.99
2023-04-17T11:02:11.963Z,57.72
2023-04-17T11:03:12.052Z,59.36
2023-04-17T11:04:11.934Z,58.61
2023-04-17T11:05:11.895Z,55.95
2023-04-17T11:06:11.939Z,60.75
2023-04-17T11:07:11.855Z,59.57
2023-04-17T11:08:11.842Z,57.45
2023-04-17T11:09:12.321Z,60.91
2023-04-17T11:10:12.871Z,60.78
2023-04-17T11:11:11.851Z,60.67
2023-04-17T11:12:11.841Z,60.48
2023-04-17T11:13:11.854Z,61.97
2023-04-17T11:14:14.135Z,59.33
2023-04-17T11:15:12.791Z,57.24
2023-04-17T11:16:11.805Z,62.97
2023-04-17T11:17:11.846Z,60.40
2023-04-17T11:18:11.807Z,58.15
2023-04-17T11:19:11.992Z,58.76
2023-04-17T11:20:11.749Z,59.02
2023-04-17T11:21:11.688Z,57.22
2023-04-17T11:22:11.755Z,58.54
2023-04-17T11:23:11.675Z,58.54
2023-04-17T11:24:11.683Z,62.20
2023-04-17T11:25:11.702Z,60.51
2023-04-17T11:26:11.670Z,59.38
2023-04-17T11:27:11.651Z,58.68
2023-04-17T11:28:11.642Z,58.67
2023-04-17T11:29:11.890Z,60.49
2023-04-17T11:30:11.666Z,58.07
2023-04-17T11:31:11.679Z,58.15
2023-04-17T11:32:11.632Z,57.87
2023-04-17T11:33:11.653Z,58.70
2023-04-17T11:34:11.582Z,60.35
2023-04-17T11:35:11.602Z,59.18
2023-04-17T11:36:11.554Z,58.59
2023-04-17T11:37:11.553Z,60.28
2023-04-17T11:38:11.594Z,61.20
2023-04-17T11:39:11.744Z,59.07
2023-04-17T11:40:11.581Z,61.13
2023-04-17T11:41:11.530Z,60.85
2023-04-17T11:42:11.497Z,65.29
2023-04-17T11:43:11.485Z,75.52
2023-04-17T11:44:11.479Z,71.99
2023-04-17T11:45:11.489Z,71.51
2023-04-17T11:46:11.454Z,68.50
2023-04-17T11:47:11.462Z,70.06
2023-04-17T11:48:11.477Z,71.35
2023-04-17T11:49:11.699Z,66.76
2023-04-17T11:50:11.450Z,74.82
2023-04-17T11:51:11.462Z,72.16
2023-04-17T11:52:11.406Z,72.43
2023-04-17T11:53:11.374Z,70.16
2023-04-17T11:54:11.608Z,74.49
2023-04-17T11:55:11.366Z,71.54
2023-04-17T11:56:11.352Z,68.15
2023-04-17T11:57:11.360Z,68.72
2023-04-17T11:58:11.324Z,61.23
2023-04-17T11:59:11.404Z,62.30
2023-04-17T12:00:11.361Z,60.23
2023-04-17T12:01:11.337Z,61.10
2023-04-17T12:02:11.294Z,56.92
2023-04-17T12:03:11.372Z,59.20
2023-04-17T12:04:11.733Z,58.67
2023-04-17T12:05:11.451Z,60.78
2023-04-17T12:06:11.270Z,62.62
2023-04-17T12:07:11.243Z,61.07
2023-04-17T12:08:11.206Z,68.08
2023-04-17T12:09:11.716Z,63.46
2023-04-17T12:10:11.183Z,60.52
2023-04-17T12:11:11.954Z,60.17
2023-04-17T12:12:11.209Z,60.52
2023-04-17T12:13:11.184Z,61.91
2023-04-17T12:14:11.435Z,60.05
2023-04-17T12:15:11.186Z,59.59
2023-04-17T12:16:11.166Z,56.48
2023-04-17T12:17:11.101Z,59.71
2023-04-17T12:18:11.148Z,59.82
2023-04-17T12:19:11.099Z,59.67
2023-04-17T12:20:11.672Z,64.62
2023-04-17T12:21:11.185Z,58.94
2023-04-17T12:22:11.060Z,58.94
2023-04-17T12:23:11.054Z,58.50
2023-04-17T12:24:11.387Z,59.91
2023-04-17T12:25:11.041Z,59.84
2023-04-17T12:26:11.002Z,60.56
2023-04-17T12:27:11.074Z,61.21
2023-04-17T12:28:11.016Z,62.91
2023-04-17T12:29:11.016Z,64.32
2023-04-17T12:30:11.029Z,63.97
2023-04-17T12:31:11.150Z,63.81
2023-04-17T12:32:11.140Z,60.94
2023-04-17T12:33:11.011Z,62.19
2023-04-17T12:34:11.108Z,61.85
2023-04-17T12:35:10.967Z,59.49
2023-04-17T12:36:10.969Z,59.99
2023-04-17T12:37:10.883Z,59.12
2023-04-17T12:38:10.911Z,60.19
2023-04-17T12:39:10.943Z,61.97
2023-04-17T12:40:10.903Z,60.66
2023-04-17T12:41:10.843Z,61.57
2023-04-17T12:42:10.865Z,64.22
2023-04-17T12:43:10.849Z,63.26
2023-04-17T12:44:11.038Z,62.82
2023-04-17T12:45:10.836Z,61.66
2023-04-17T12:46:10.900Z,61.45
2023-04-17T12:47:10.790Z,69.98
2023-04-17T12:48:10.813Z,69.62
2023-04-17T12:49:10.955Z,62.10
2023-04-17T12:50:10.762Z,67.15
2023-04-17T12:51:10.780Z,71.50
2023-04-17T12:52:10.788Z,71.53
2023-04-17T12:53:10.733Z,63.50
2023-04-17T12:54:10.811Z,59.48